Weather observations for the past three days for
Edinburg, Edinburg International Airport
Metric (Imperial)
Date Time (cdt) Wind (kph) Vis. (km) Weather Sky Cond. Temperature (ºC) Relative Humidity Wind Chill (°C) Heat Index (°C) Pressure Precipitation (cm)
Air Dwpt 6 hour altimeter (cm) sea level (mb) 1 hr 3 hr 6 hr
Max. Min.
31 10:35 S 24 16.09 Fair CLR 32 22 55% 36 76.1 0.0
31 10:15 S 20 16.09 Fair CLR 32 23 59% 37 76.1 0.0
31 09:55 S 24 16.09 Fair CLR 31 23 62% 35 76.07 0.0
31 09:35 S 24 16.09 Fair CLR 30 24 70% 35 76.07 0.0
31 09:15 S 22 16.09 Fair CLR 30 24 70% 35 76.1 0.0
31 08:55 S 17 16.09 Fair CLR 29 25 79% 35 76.07 0.0
31 08:35 SE 17 16.09 Fair CLR 28 25 84% 33 76.07 0.0
31 08:15 SE 11 14.48 Fair CLR 27 25 89% 31 76.05 0.0
31 07:55 SE 9 12.87 Fair CLR 27 24 84% 30 76.05 0.0
31 07:35 E 13 11.27 Fair CLR 26 24 89% 28 76.02 0.0
31 07:15 E 11 11.27 Fog/Mist CLR 26 24 89% 28 76 0.0
31 06:56 SE 7 12.87 Fair CLR 26 24 89% 28 76 0.0
31 06:35 SE 7 14.48 Fair CLR 26 24 89% 28 76 0.0
31 05:55 SE 9 16.09 Fair CLR 26 24 89% 28 76 0.0
31 05:35 SE 9 16.09 Fair CLR 27 24 84% 30 76 0.0
31 05:15 SE 9 16.09 Fair CLR 27 24 84% 30 76 0.0
31 04:55 S 7 16.09 Fair CLR 27 24 84% 30 76 0.0
31 04:35 S 11 16.09 Fair CLR 28 24 79% 32 76 0.0
31 04:16 SE 11 16.09 Fair CLR 28 24 79% 32 76 0.0
31 03:55 S 11 16.09 Fair CLR 28 25 84% 33 76 0.0
31 03:35 SE 11 16.09 Fair CLR 27 25 89% 31 76 0.0
31 03:15 SE 7 16.09 Partly Cloudy SCT019 27 24 84% 30 76.02 0.0
31 02:55 SE 9 16.09 Mostly Cloudy BKN019 28 25 84% 33 76.02 0.0
31 02:35 S 9 16.09 Partly Cloudy SCT019 28 25 84% 33 76.02 0.0
31 02:15 S 13 16.09 Fair CLR 28 25 84% 33 76.02 0.0
31 01:55 S 13 16.09 Fair CLR 28 25 84% 33 76.05 0.0
31 01:35 S 15 16.09 Fair CLR 29 25 79% 35 76.07 0.0
31 01:15 S 17 16.09 Fair CLR 29 25 79% 35 76.07 0.0
31 00:55 S 20 G 28 16.09 Fair CLR 29 24 34.8 28.7 74% 34 76.07 0.0
31 00:36 S 20 16.09 Fair CLR 29 24 74% 34 76.07 0.0
31 00:15 SE 22 G 31 16.09 Fair CLR 29 24 74% 34 76.07 0.0
30 23:55 S 20 16.09 Fair CLR 29 24 74% 34 76.07 0.0
30 23:35 SE 20 G 31 16.09 Fair CLR 29 24 74% 34 76.07 0.0
30 23:15 SE 20 16.09 Fair CLR 29 24 74% 34 76.07 0.0
30 22:55 SE 24 16.09 Fair CLR 30 24 70% 35 76.05 0.0
30 22:35 SE 22 16.09 Fair CLR 30 24 70% 35 76.02 0.0
30 22:15 SE 22 16.09 Fair CLR 30 24 70% 35 76 0.0
30 21:55 SE 22 16.09 Fair CLR 30 24 70% 35 75.97 0.0
30 21:35 SE 24 G 35 16.09 Fair CLR 31 23 62% 35 75.95 0.0
30 21:15 SE 26 16.09 Fair CLR 31 23 62% 35 75.95 0.0
30 20:55 SE 26 G 37 16.09 Fair CLR 31 22 59% 35 75.92 0.0
30 20:35 SE 24 16.09 Fair CLR 32 22 55% 36 75.9 0.0
30 20:15 SE 24 16.09 Fair CLR 32 23 59% 37 75.9 0.0
30 19:55 SE 31 G 39 16.09 Fair CLR 33 23 56% 38 75.87 0.0
30 19:35 SE 30 G 43 16.09 Fair CLR 34 22 50% 38 75.84 0.0
30 19:16 SE 30 G 41 16.09 Fair CLR 34 22 50% 38 75.82 0.0
30 18:55 SE 35 G 46 16.09 Fair and Breezy CLR 35 22 40.2 34.8 47% 39 75.79 0.0
30 18:36 SE 30 16.09 Fair CLR 35 23 50% 41 75.82 0.0
30 18:16 SE 31 G 39 16.09 A Few Clouds FEW050 36 23 47% 42 75.82 0.0
30 17:55 SE 31 G 46 14.48 A Few Clouds FEW050 36 23 47% 42 75.79 0.0
30 17:35 SE 37 G 50 16.09 Fair and Breezy CLR 37 23 44% 43 75.79 0.0
30 17:16 SE 33 16.09 Fair and Breezy CLR 37 22 42% 42 75.77 0.0
30 16:55 SE 35 G 43 16.09 Partly Cloudy and Breezy SCT055 SCT080 SCT090 38 22 40% 43 75.77 0.0
30 16:35 SE 26 G 41 16.09 Mostly Cloudy SCT065 SCT075 BKN095 39 21 35% 43 75.77 0.0
30 16:15 E 28 G 39 16.09 Mostly Cloudy SCT075 BKN085 39 22 37% 44 75.79 0.0
30 15:55 SW 15 G 26 16.09 A Few Clouds FEW075 39 18 29% 41 75.82 0.0
30 15:36 S 20 G 28 16.09 A Few Clouds FEW065 39 19 31% 42 75.84 0.0
30 15:15 S 22 G 31 16.09 Partly Cloudy SCT065 SCT090 38 19 33% 40 75.9 0.0
30 14:55 E 17 G 31 16.09 Partly Cloudy SCT065 SCT090 39 19 31% 42 75.92 0.0
30 14:35 Vrbl 9 G 30 16.09 A Few Clouds FEW065 38 20 35% 41 75.95 0.0
30 14:15 S 19 G 30 16.09 Mostly Cloudy BKN065 BKN080 37 20 37% 40 75.97 0.0
30 13:55 SE 20 G 28 16.09 Mostly Cloudy BKN055 BKN080 37 20 37% 40 76 0.0
30 13:35 S 15 G 26 16.09 Mostly Cloudy BKN055 36 21 42% 40 76.02 0.0
30 13:15 SW 15 G 30 16.09 Partly Cloudy SCT055 36 21 42% 40 76.05 0.0
30 12:55 S 19 G 30 16.09 A Few Clouds FEW050 36 21 36.8 24.9 42% 40 76.07 0.0
30 12:35 S 26 G 31 16.09 Partly Cloudy SCT048 35 21 44% 38 76.1 0.0
30 12:16 SE 20 16.09 Fair CLR 36 22 44% 41 76.12 0.0
30 11:55 S 20 G 33 16.09 Fair CLR 35 22 47% 39 76.15 0.0
30 11:35 S 17 16.09 Fair CLR 34 22 50% 38 76.15 0.0
30 11:15 S 17 G 31 16.09 Fair CLR 34 23 53% 39 76.15 0.0
30 10:55 S 26 16.09 Fair CLR 34 23 53% 39 76.15 0.0
30 10:35 S 24 16.09 Fair CLR 33 23 56% 38 76.15 0.0
30 10:15 S 20 G 28 16.09 Fair CLR 32 23 59% 37 76.15 0.0
30 09:55 S 20 G 30 16.09 Fair CLR 31 24 66% 37 76.15 0.0
30 09:35 S 19 16.09 Fair CLR 31 24 66% 37 76.15 0.0
30 09:15 S 17 16.09 Fair CLR 30 24 70% 35 76.12 0.0
30 08:55 S 17 16.09 Fair CLR 29 25 79% 35 76.1 0.0
30 08:35 SE 13 16.09 Fair CLR 28 25 84% 33 76.12 0.0
30 08:15 SE 11 16.09 Fair CLR 27 24 84% 30 76.1 0.0
30 07:55 SE 7 16.09 Fair CLR 26 24 89% 28 76.1 0.0
30 07:35 E 7 16.09 Fair CLR 25 24 94% 26 76.07 0.0
30 07:15 Calm 16.09 Fair CLR 25 24 94% 26 76.07 0.0
30 06:55 SE 6 16.09 Fair CLR 25 24 28.1 24.8 94% 26 76.07 0.0
30 06:35 SE 7 16.09 Fair CLR 25 24 94% 26 76.05 0.0
30 06:16 S 9 16.09 Fair CLR 25 23 89% 26 76.05 0.0
30 05:55 SE 9 16.09 Fair CLR 25 24 94% 26 76.05 0.0
30 05:35 SE 6 16.09 Fair CLR 26 24 89% 28 76.05 0.0
30 05:15 SE 7 16.09 Fair CLR 26 24 89% 28 76.05 0.0
30 04:55 SE 7 16.09 Fair CLR 26 24 89% 28 76.05 0.0
30 04:35 SE 6 16.09 Partly Cloudy SCT026 26 24 89% 28 76.07 0.0
30 04:15 SE 6 16.09 Partly Cloudy FEW020 SCT026 26 24 89% 28 76.07 0.0
30 03:55 SE 9 16.09 A Few Clouds FEW020 26 24 89% 28 76.1 0.0
30 03:35 SE 9 16.09 Fair CLR 26 24 89% 28 76.1 0.0
30 03:15 SE 6 16.09 Fair CLR 27 24 84% 30 76.1 0.0
30 02:55 SE 7 16.09 Fair CLR 27 24 84% 30 76.1 0.0
30 02:35 SE 6 16.09 Fair CLR 27 24 84% 30 76.12 0.0
30 02:16 S 7 16.09 Fair CLR 27 24 84% 30 76.12 0.0
30 01:55 SE 7 16.09 Fair CLR 27 24 84% 30 76.12 0.0
30 01:35 SE 11 16.09 Fair CLR 28 24 79% 32 76.15 0.0
30 01:16 S 13 16.09 A Few Clouds FEW020 28 24 79% 32 76.15 0.0
30 00:55 S 13 16.09 A Few Clouds FEW020 28 24 34.5 28 79% 32 76.15 0.0
30 00:35 SE 13 16.09 Fair CLR 28 24 79% 32 76.15 0.0
30 00:15 S 13 16.09 Fair CLR 28 24 79% 32 76.17 0.0
29 23:55 S 17 16.09 Fair CLR 28 24 79% 32 76.15 0.0
29 23:35 S 17 16.09 Fair CLR 29 23 70% 33 76.15 0.0
29 23:15 SE 20 16.09 Fair CLR 29 23 70% 33 76.15 0.0
29 22:55 SE 19 16.09 Fair CLR 29 24 74% 34 76.15 0.0
29 22:35 SE 19 16.09 Fair CLR 29 24 74% 34 76.15 0.0
29 22:15 SE 20 16.09 Fair CLR 30 24 70% 35 76.12 0.0
29 21:55 SE 22 16.09 Fair CLR 30 24 70% 35 76.1 0.0
29 21:35 SE 19 16.09 Fair CLR 30 23 66% 34 76.1 0.0
29 21:15 SE 20 16.09 Fair CLR 31 23 62% 35 76.07 0.0
29 20:55 SE 24 16.09 Fair CLR 31 23 62% 35 76.05 0.0
29 20:35 SE 26 G 33 16.09 Fair CLR 31 23 62% 35 76.05 0.0
29 20:15 SE 26 16.09 Fair CLR 32 22 55% 36 76.02 0.0
29 19:55 SE 28 16.09 Fair CLR 32 22 55% 36 76 0.0
29 19:35 SE 28 16.09 Fair CLR 33 22 52% 37 75.97 0.0
29 19:15 SE 28 16.09 Fair CLR 34 22 50% 38 75.97 0.0
29 18:55 SE 26 16.09 Fair CLR 34 22 38.2 34.6 50% 38 75.97 0.0
29 18:35 SE 22 16.09 Fair CLR 35 22 47% 39 75.95 0.0
29 18:15 SE 28 16.09 Partly Cloudy SCT050 SCT085 35 22 47% 39 75.95 0.0
29 17:55 SE 28 G 37 16.09 Mostly Cloudy BKN050 BKN075 BKN085 36 22 44% 41 75.95 0.0
29 17:35 SE 24 G 37 16.09 Partly Cloudy SCT050 SCT065 36 22 44% 41 75.92 0.0
29 17:15 SE 31 G 41 16.09 Partly Cloudy SCT060 36 22 44% 41 75.92 0.0
29 16:55 E 24 G 39 16.09 Thunderstorm in Vicinity SCT060 SCT070 BKN085 36 22 44% 41 75.95 0.0
29 16:35 E 26 16.09 Mostly Cloudy SCT060 BKN070 BKN095 37 21 39% 41 75.97 0.0
29 16:15 SE 20 G 28 16.09 Partly Cloudy FEW060 SCT075 SCT095 38 21 37% 42 75.97 0.0
29 15:55 SE 26 G 31 16.09 Fair CLR 37 21 39% 41 76 0.0
29 15:35 S 20 G 33 16.09 Fair CLR 37 20 37% 40 76 0.0
29 15:15 SE 19 G 31 16.09 A Few Clouds FEW065 37 21 39% 41 76.02 0.0
29 14:55 E 26 G 41 16.09 Mostly Cloudy SCT060 SCT070 BKN090 35 22 47% 39 76.05 0.0
29 14:35 E 30 G 39 16.09 Overcast BKN060 OVC070 36 22 44% 41 76.07 0.0
29 14:15 E 13 16.09 Mostly Cloudy BKN060 BKN075 36 20 39% 39 76.12 0.0
29 13:55 S 13 16.09 Partly Cloudy BKN060 SCT075 36 20 39% 39 76.15 0.0
29 13:35 SE 19 G 28 16.09 A Few Clouds FEW060 FEW080 37 20 37% 40 76.17 0.0
29 13:15 S 17 G 31 16.09 A Few Clouds FEW050 FEW065 36 20 39% 39 76.17 0.0
29 12:55 S 19 G 31 16.09 Fair CLR 36 20 35.9 24.9 39% 39 76.2 0.0
29 12:35 SE 17 G 30 16.09 Fair CLR 35 20 41% 38 76.23 0.0
29 12:15 SE 19 G 30 16.09 A Few Clouds FEW044 FEW060 34 22 50% 38 76.25 0.0
29 11:55 S 17 G 30 16.09 Partly Cloudy FEW038 SCT045 SCT060 34 22 50% 38 76.28 0.0
29 11:35 S 19 16.09 Mostly Cloudy BKN036 BKN046 BKN055 34 23 53% 39 76.28 0.0
29 11:15 SE 19 16.09 Mostly Cloudy BKN033 BKN041 33 23 56% 38 76.3 0.0
29 10:55 S 17 G 28 16.09 Mostly Cloudy BKN031 BKN038 33 23 56% 38 76.3 0.0
29 10:35 SE 19 G 31 16.09 Mostly Cloudy BKN026 33 24 59% 39 76.3 0.0
29 10:15 SE 20 16.09 Partly Cloudy SCT024 32 24 63% 38 76.28 0.0
29 09:55 S 17 16.09 Partly Cloudy SCT022 31 24 66% 37 76.25 0.0
29 09:35 S 19 16.09 A Few Clouds FEW017 30 25 75% 36 76.25 0.0
29 09:15 S 17 16.09 Fair CLR 30 25 75% 36 76.23 0.0
29 08:55 SE 19 16.09 Fair CLR 29 25 79% 35 76.23 0.0
29 08:35 SE 13 16.09 Fair CLR 28 25 84% 33 76.2 0.0
29 08:15 SE 11 16.09 Fair CLR 27 25 89% 31 76.2 0.0
29 07:55 Calm 14.48 Fair CLR 26 24 89% 28 76.2 0.0
29 07:35 Calm 12.87 Fair CLR 25 24 94% 26 76.2 0.0
29 07:15 E 9 12.87 Fair CLR 25 24 94% 26 76.17 0.0
29 06:55 E 11 16.09 Fair CLR 25 24 27.1 24.5 94% 26 76.17 0.0
29 06:35 E 9 16.09 Fair CLR 25 24 94% 26 76.17 0.0
29 06:15 E 7 16.09 Fair CLR 25 23 89% 26 76.15 0.0
29 05:55 Calm 16.09 Fair CLR 25 24 94% 26 76.15 0.0
29 05:35 E 6 16.09 Fair CLR 25 24 94% 26 76.15 0.0
29 05:15 E 7 16.09 A Few Clouds FEW018 26 24 89% 28 76.15 0.0
29 04:55 E 7 16.09 Fair CLR 26 24 89% 28 76.17 0.0
29 04:35 Calm 16.09 Fair CLR 25 23 89% 26 76.15 0.0
29 04:16 Calm 16.09 Fair CLR 26 24 89% 28 76.12 0.0
29 03:55 SE 7 16.09 Fair CLR 25 23 89% 26 76.12 0.0
29 03:35 SE 6 16.09 Fair CLR 26 24 89% 28 76.12 0.0
29 03:15 Calm 16.09 Fair CLR 26 24 89% 28 76.12 0.0
29 02:55 Calm 16.09 Fair CLR 26 24 89% 28 76.12 0.0
29 02:35 S 11 16.09 Fair CLR 27 24 84% 30 76.12 0.0
29 02:15 S 9 16.09 Fair CLR 27 24 84% 30 76.12 0.0
29 01:55 S 11 16.09 Fair CLR 27 24 84% 30 76.1 0.0
29 01:35 S 13 16.09 Fair CLR 27 24 84% 30 76.12 0.0
29 01:15 S 9 16.09 Fair CLR 25 23 89% 26 76.15 0.0
29 00:55 S 9 16.09 Fair CLR 26 23 32.5 26.4 84% 28 76.17 0.0
29 00:35 SE 6 16.09 Fair CLR 26 23 84% 28 76.2 0.0
29 00:15 SE 7 16.09 Fair CLR 27 23 79% 30 76.2 0.0
28 23:35 SE 9 16.09 Fair CLR 28 23 74% 31 76.23 0.0
28 23:15 S 13 16.09 Fair CLR 28 23 74% 31 76.17 0.0
28 22:55 SE 11 16.09 Fair CLR 28 23 74% 31 76.2 0.0
28 22:35 SE 11 16.09 Fair CLR 29 23 70% 33 76.17 0.0
28 22:15 S 15 16.09 Fair CLR 29 23 70% 33 76.15 0.0
28 21:55 SE 15 16.09 Fair CLR 29 23 70% 33 76.15 0.0
28 21:35 SE 15 16.09 Fair CLR 30 23 66% 34 76.15 0.0
28 21:15 SE 19 16.09 Fair CLR 30 23 66% 34 76.15 0.0
28 20:55 SE 20 16.09 Fair CLR 31 22 59% 35 76.12 0.0
28 20:35 SE 22 16.09 Fair CLR 31 23 62% 35 76.07 0.0
28 20:15 SE 19 16.09 Fair CLR 31 23 62% 35 76.05 0.0
28 19:55 SE 22 16.09 Fair CLR 32 22 55% 36 76.02 0.0
28 19:35 SE 20 16.09 Fair CLR 32 22 55% 36 76 0.0
28 19:15 SE 26 16.09 Fair CLR 33 23 56% 38 75.97 0.0
28 18:55 SE 24 16.09 Partly Cloudy FEW095 SCT110 32 24 39.7 29.9 63% 38 75.97 0.0 0.13
28 18:35 SE 19 16.09 Overcast SCT050 BKN095 OVC110 32 24 63% 38 76 0.0
28 18:15 SE 13 4.83 Thunderstorm in Vicinity Rain Haze BKN060 BKN075 OVC100 31 24 66% 37 76.02 0.0
28 17:55 S 24 16.09 Overcast BKN060 OVC070 32 22 55% 36 76 0.0
28 17:35 SE 39 G 48 16.09 Overcast and Breezy BKN060 OVC070 34 22 50% 38 75.92 0.0
28 17:15 E 33 G 41 16.09 Mostly Cloudy and Breezy SCT060 SCT070 BKN090 38 22 40% 43 75.92 0.0
28 16:55 E 31 G 41 16.09 Mostly Cloudy SCT047 SCT070 BKN095 37 21 39% 41 75.95 0.0
28 16:35 E 33 G 39 16.09 Overcast and Breezy SCT065 BKN070 OVC100 38 21 37% 42 75.95 0.0
28 16:15 E 28 G 35 16.09 Mostly Cloudy FEW075 BKN095 39 21 35% 43 75.95 0.0
28 15:55 E 15 16.09 Partly Cloudy SCT070 SCT085 39 19 31% 42 75.97 0.0
28 15:35 SE 20 16.09 Mostly Cloudy BKN070 BKN085 38 18 31% 40 76 0.0
28 15:15 Calm 16.09 A Few Clouds FEW070 38 18 31% 40 76 0.0
28 14:55 S 17 G 30 16.09 Partly Cloudy SCT070 38 18 31% 40 76.02 0.0
28 14:35 SE 19 G 30 16.09 Partly Cloudy SCT070 38 18 31% 40 76.07 0.0
28 14:15 SE 20 G 26 16.09 A Few Clouds FEW070 38 19 33% 40 76.07 0.0
28 13:55 SE 20 G 26 16.09 Fair CLR 38 19 33% 40 76.1 0.0
28 13:35 SE 19 G 30 16.09 Fair CLR 37 18 33% 39 76.12 0.0
28 13:15 SE 13 16.09 Fair CLR 37 18 33% 39 76.15 0.0
28 12:55 S 19 16.09 Fair CLR 37 19 36.8 24.9 35% 39 76.17 0.0
28 12:35 SE 15 G 26 16.09 A Few Clouds FEW050 36 19 37% 38 76.17 0.0
28 12:15 S 15 16.09 A Few Clouds FEW050 36 21 42% 40 76.2 0.0
28 11:55 SE 19 16.09 Fair CLR 35 21 44% 38 76.2 0.0
28 11:35 SE 17 16.09 A Few Clouds FEW040 34 21 47% 37 76.23 0.0
28 11:15 S 17 16.09 Fair CLR 34 22 50% 38 76.23 0.0
Date Time (cdt) Wind (kph) Vis. (km) Weather Sky Cond. Air Dwpt Max. Min. Relative Humidity Wind Chill (°C) Heat Index (°C) altimeter (cm) sea level (mb) 1 hr 3 hr 6 hr
6 hour
Temperature (ºC) Pressure Precipitation (cm)